Buxtehude — V2BY8 — position and weather

sailwx.info

Track history (hours):
 
Tides and Currents Weather Stations Pressure Air Temp Water Temp Dewpoint Dewpoint Depression Visibility Wind Speed Wind Dir Waves Ship Positions

Buxtehude

Last reported at 2016-Jun-29 08:34 UTC. Time now 2016-Jun-29 09:19 UTC.
Position N 51°27' E 000°20'.

Length 134 m; draft 8.3 m.

Type: Ship. MMSI: 304962000.

Date/timePositionNaut miles runAvg speedWind from/ knotsBaromVisibWave heightAir tempDewpointWater temp
2016-Jun-29 08:34N 51°27' E 000°20'6 5.5
2016-Jun-29 07:33N 51°30' E 000°28'1615.6
2016-Jun-29 06:33N 51°29' E 000°53'1615.8
2016-Jun-29 05:34N 51°29' E 001°19'1010.4
2016-Jun-29 04:34N 51°29' E 001°35'1312.9
2016-Jun-29 03:33N 51°30' E 001°56'1414.0
2016-Jun-29 02:33N 51°39' E 002°13'6115.2
2016-Jun-28 22:34N 52°03' E 003°43'1313.3
2016-Jun-28 21:33N 51°59' E 004°04'1 1.4
2016-Jun-28 20:33N 51°59' E 004°02'0 0.0
2016-Jun-28 19:33N 51°59' E 004°02'0 0.0
2016-Jun-28 18:34N 51°59' E 004°02'1 1.4
2016-Jun-28 17:31N 51°58' E 004°04'0 0.0
2016-Jun-28 16:33N 51°58' E 004°04'0 0.0
2016-Jun-28 15:33N 51°58' E 004°04'0 0.0
2016-Jun-28 14:33N 51°58' E 004°04'1 0.7
2016-Jun-28 13:33N 51°57' E 004°04'0 0.2
2016-Jun-28 12:33N 51°57' E 004°04'0 0.0
2016-Jun-28 11:33N 51°57' E 004°04'0 0.0
2016-Jun-28 10:33N 51°57' E 004°04'0 0.0
2016-Jun-28 09:33N 51°57' E 004°04'0 0.0
2016-Jun-28 08:33N 51°57' E 004°04'0 0.1
2016-Jun-28 07:33N 51°57' E 004°04'9 9.1
2016-Jun-28 06:34N 52°01' E 003°51'4615.4
2016-Jun-28 03:33N 51°46' E 002°40'1616.4
2016-Jun-28 02:33N 51°35' E 002°21'1615.8
2016-Jun-28 01:33N 51°24' E 002°03'1615.6
2016-Jun-28 00:33N 51°12' E 001°47'1514.5
2016-Jun-27 23:33N 51°00' E 001°34'1413.8
2016-Jun-27 22:32N 50°48' E 001°23'1614.3
2016-Jun-27 21:23N 50°34' E 001°08'1214.4
2016-Jun-27 20:33N 50°28' E 000°52'1515.0
2016-Jun-27 19:33N 50°25' E 000°29'1514.8
2016-Jun-27 18:33N 50°21' E 000°07'1414.4
2016-Jun-27 17:33N 50°17' W 000°15'1514.5
2016-Jun-27 16:33N 50°13' W 000°37'1515.5
2016-Jun-27 15:33N 50°09' W 001°00'1716.8
2016-Jun-27 14:33N 50°04' W 001°25'7418.5
2016-Jun-27 10:33N 49°41' W 003°14'8717.3
2016-Jun-27 05:33N 48°57' W 005°10'57611.2
2016-Jun-25 02:15N 39°53' W 009°31'912.5
2016-Jun-25 01:33N 39°45' W 009°35'1412.8
2016-Jun-25 00:29N 39°33' W 009°43'2412.5
2016-Jun-24 22:32N 39°08' W 009°48'1313.1
2016-Jun-24 21:31N 38°55' W 009°50'1312.9
2016-Jun-24 20:29N 38°42' W 009°50'1212.4
2016-Jun-24 19:33N 38°33' W 009°40'1413.6
2016-Jun-24 18:33N 38°25' W 009°26'1312.6
2016-Jun-24 17:33N 38°21' W 009°11'1413.9
2016-Jun-24 16:32N 38°29' W 008°56'3 3.3
2016-Jun-24 15:33N 38°31' W 008°52'0 0.0
2016-Jun-24 14:27N 38°31' W 008°52'0 0.0
2016-Jun-24 13:32N 38°31' W 008°52'0 0.0
2016-Jun-24 12:32N 38°31' W 008°52'0 0.0
2016-Jun-24 11:22N 38°31' W 008°52'0 0.0
2016-Jun-24 10:31N 38°31' W 008°52'0 0.0
2016-Jun-24 09:33N 38°31' W 008°52'0 0.0
2016-Jun-24 08:30N 38°31' W 008°52'0 0.0
2016-Jun-24 07:33N 38°31' W 008°52'0 0.0
2016-Jun-24 04:31N 38°31' W 008°52'0 0.0
2016-Jun-24 03:31N 38°31' W 008°52'0 0.0
2016-Jun-24 02:21N 38°31' W 008°52'0 0.0
2016-Jun-24 01:33N 38°31' W 008°52'0 0.0
2016-Jun-24 00:30N 38°31' W 008°52'0 0.0
2016-Jun-23 23:32N 38°31' W 008°52'0 0.0
2016-Jun-23 22:32N 38°31' W 008°52'0 0.0
2016-Jun-23 21:25N 38°31' W 008°52'0 0.0
2016-Jun-23 20:28N 38°31' W 008°52'0 0.0
2016-Jun-23 19:33N 38°31' W 008°52'0 0.0
2016-Jun-23 18:33N 38°31' W 008°52'0 0.0
2016-Jun-23 17:33N 38°31' W 008°52'0 0.0
2016-Jun-23 16:29N 38°31' W 008°52'0 0.0
2016-Jun-23 15:32N 38°31' W 008°52'0 0.0
2016-Jun-23 14:28N 38°31' W 008°52'0 0.0
2016-Jun-23 13:31N 38°31' W 008°52'0 0.0
2016-Jun-23 12:33N 38°31' W 008°52'0 0.0
2016-Jun-23 11:21N 38°31' W 008°52'0 0.0
2016-Jun-23 10:27N 38°31' W 008°52'0 0.0
2016-Jun-23 09:33N 38°31' W 008°52'6 6.1
2016-Jun-23 08:33N 38°27' W 008°58'6 6.4
2016-Jun-23 07:33N 38°21' W 008°60'2612.9
2016-Jun-23 05:33N 37°56' W 008°51'0 0.0
2016-Jun-23 04:32N 37°56' W 008°51'0 0.0
2016-Jun-23 03:32N 37°56' W 008°51'0 0.0
2016-Jun-23 02:31N 37°56' W 008°51'0 0.0
2016-Jun-23 01:31N 37°56' W 008°51'0 0.0
2016-Jun-23 00:33N 37°56' W 008°51'0 0.0
2016-Jun-22 23:33N 37°56' W 008°51'0 0.0
2016-Jun-22 22:33N 37°56' W 008°51'0 0.0
2016-Jun-22 21:29N 37°56' W 008°51'0 0.0
2016-Jun-22 20:32N 37°56' W 008°51'0 0.0
2016-Jun-22 19:31N 37°56' W 008°51'0 0.0
2016-Jun-22 18:31N 37°56' W 008°51'0 0.0
2016-Jun-22 17:33N 37°56' W 008°51'0 0.0
2016-Jun-22 16:33N 37°56' W 008°51'0 0.1
2016-Jun-22 15:33N 37°56' W 008°51'1 1.4
2016-Jun-22 14:33N 37°55' W 008°52'0 0.0
2016-Jun-22 13:33N 37°55' W 008°52'0 0.0
2016-Jun-22 12:34N 37°55' W 008°52'0 0.0
2016-Jun-22 11:33N 37°55' W 008°52'0 0.0
2016-Jun-22 10:33N 37°55' W 008°52'0 0.0
2016-Jun-22 09:33N 37°55' W 008°52'0 0.0
2016-Jun-22 08:34N 37°55' W 008°52'5 4.6
2016-Jun-22 07:33N 37°57' W 008°56'1514.7
2016-Jun-22 06:33N 38°07' W 009°10'1515.0
2016-Jun-22 05:33N 38°15' W 009°26'1515.3
2016-Jun-22 04:33N 38°23' W 009°43'1414.2
2016-Jun-22 03:33N 38°32' W 009°57'1413.9
2016-Jun-22 02:32N 38°45' W 010°05'1515.2
2016-Jun-22 01:32N 38°60' W 010°05'1515.1
2016-Jun-22 00:33N 39°15' W 010°04'1615.4
2016-Jun-21 23:31N 39°30' W 010°04'  
2016-Jun-19 16:33N 53°33' W 003°60'1817.6
2016-Jun-19 15:33N 53°33' W 003°30'1515.4
2016-Jun-19 14:33N 53°29' W 003°05'3 2.7
2016-Jun-19 13:33N 53°27' W 003°01'0 0.2
2016-Jun-19 12:31N 53°28' W 003°01'0 0.0
2016-Jun-19 11:31N 53°28' W 003°01'0 0.0
2016-Jun-19 10:33N 53°28' W 003°01'0 0.0
2016-Jun-19 09:33N 53°28' W 003°01'  
Track history (hours):
 
Tides and Currents Weather Stations Pressure Air Temp Water Temp Dewpoint Dewpoint Depression Visibility Wind Speed Wind Dir Waves Ship Positions

Buxtehude

Last reported at 2016-Jun-29 08:34 UTC. Time now 2016-Jun-29 09:19 UTC.
Position N 51°27' E 000°20'.

Length 134 m; draft 8.3 m.

Type: Ship. MMSI: 304962000.

Date/timePositionNaut miles runAvg speedWind from/ knotsBaromVisibWave heightAir tempDewpointWater temp
2016-Jun-29 08:34N 51°27' E 000°20'6 5.5
2016-Jun-29 07:33N 51°30' E 000°28'1615.6
2016-Jun-29 06:33N 51°29' E 000°53'1615.8
2016-Jun-29 05:34N 51°29' E 001°19'1010.4
2016-Jun-29 04:34N 51°29' E 001°35'1312.9
2016-Jun-29 03:33N 51°30' E 001°56'1414.0
2016-Jun-29 02:33N 51°39' E 002°13'6115.2
2016-Jun-28 22:34N 52°03' E 003°43'1313.3
2016-Jun-28 21:33N 51°59' E 004°04'1 1.4
2016-Jun-28 20:33N 51°59' E 004°02'0 0.0
2016-Jun-28 19:33N 51°59' E 004°02'0 0.0
2016-Jun-28 18:34N 51°59' E 004°02'1 1.4
2016-Jun-28 17:31N 51°58' E 004°04'0 0.0
2016-Jun-28 16:33N 51°58' E 004°04'0 0.0
2016-Jun-28 15:33N 51°58' E 004°04'0 0.0
2016-Jun-28 14:33N 51°58' E 004°04'1 0.7
2016-Jun-28 13:33N 51°57' E 004°04'0 0.2
2016-Jun-28 12:33N 51°57' E 004°04'0 0.0
2016-Jun-28 11:33N 51°57' E 004°04'0 0.0
2016-Jun-28 10:33N 51°57' E 004°04'0 0.0
2016-Jun-28 09:33N 51°57' E 004°04'0 0.0
2016-Jun-28 08:33N 51°57' E 004°04'0 0.1
2016-Jun-28 07:33N 51°57' E 004°04'9 9.1
2016-Jun-28 06:34N 52°01' E 003°51'4615.4
2016-Jun-28 03:33N 51°46' E 002°40'1616.4
2016-Jun-28 02:33N 51°35' E 002°21'1615.8
2016-Jun-28 01:33N 51°24' E 002°03'1615.6
2016-Jun-28 00:33N 51°12' E 001°47'1514.5
2016-Jun-27 23:33N 51°00' E 001°34'1413.8
2016-Jun-27 22:32N 50°48' E 001°23'1614.3
2016-Jun-27 21:23N 50°34' E 001°08'1214.4
2016-Jun-27 20:33N 50°28' E 000°52'1515.0
2016-Jun-27 19:33N 50°25' E 000°29'1514.8
2016-Jun-27 18:33N 50°21' E 000°07'1414.4
2016-Jun-27 17:33N 50°17' W 000°15'1514.5
2016-Jun-27 16:33N 50°13' W 000°37'1515.5
2016-Jun-27 15:33N 50°09' W 001°00'1716.8
2016-Jun-27 14:33N 50°04' W 001°25'7418.5
2016-Jun-27 10:33N 49°41' W 003°14'8717.3
2016-Jun-27 05:33N 48°57' W 005°10'57611.2
2016-Jun-25 02:15N 39°53' W 009°31'912.5
2016-Jun-25 01:33N 39°45' W 009°35'1412.8
2016-Jun-25 00:29N 39°33' W 009°43'2412.5
2016-Jun-24 22:32N 39°08' W 009°48'1313.1
2016-Jun-24 21:31N 38°55' W 009°50'1312.9
2016-Jun-24 20:29N 38°42' W 009°50'1212.4
2016-Jun-24 19:33N 38°33' W 009°40'1413.6
2016-Jun-24 18:33N 38°25' W 009°26'1312.6
2016-Jun-24 17:33N 38°21' W 009°11'1413.9
2016-Jun-24 16:32N 38°29' W 008°56'3 3.3
2016-Jun-24 15:33N 38°31' W 008°52'0 0.0
2016-Jun-24 14:27N 38°31' W 008°52'0 0.0
2016-Jun-24 13:32N 38°31' W 008°52'0 0.0
2016-Jun-24 12:32N 38°31' W 008°52'0 0.0
2016-Jun-24 11:22N 38°31' W 008°52'0 0.0
2016-Jun-24 10:31N 38°31' W 008°52'0 0.0
2016-Jun-24 09:33N 38°31' W 008°52'0 0.0
2016-Jun-24 08:30N 38°31' W 008°52'0 0.0
2016-Jun-24 07:33N 38°31' W 008°52'0 0.0
2016-Jun-24 04:31N 38°31' W 008°52'0 0.0
2016-Jun-24 03:31N 38°31' W 008°52'0 0.0
2016-Jun-24 02:21N 38°31' W 008°52'0 0.0
2016-Jun-24 01:33N 38°31' W 008°52'0 0.0
2016-Jun-24 00:30N 38°31' W 008°52'0 0.0
2016-Jun-23 23:32N 38°31' W 008°52'0 0.0
2016-Jun-23 22:32N 38°31' W 008°52'0 0.0
2016-Jun-23 21:25N 38°31' W 008°52'0 0.0
2016-Jun-23 20:28N 38°31' W 008°52'0 0.0
2016-Jun-23 19:33N 38°31' W 008°52'0 0.0
2016-Jun-23 18:33N 38°31' W 008°52'0 0.0
2016-Jun-23 17:33N 38°31' W 008°52'0 0.0
2016-Jun-23 16:29N 38°31' W 008°52'0 0.0
2016-Jun-23 15:32N 38°31' W 008°52'0 0.0
2016-Jun-23 14:28N 38°31' W 008°52'0 0.0
2016-Jun-23 13:31N 38°31' W 008°52'0 0.0
2016-Jun-23 12:33N 38°31' W 008°52'0 0.0
2016-Jun-23 11:21N 38°31' W 008°52'0 0.0
2016-Jun-23 10:27N 38°31' W 008°52'0 0.0
2016-Jun-23 09:33N 38°31' W 008°52'6 6.1
2016-Jun-23 08:33N 38°27' W 008°58'6 6.4
2016-Jun-23 07:33N 38°21' W 008°60'2612.9
2016-Jun-23 05:33N 37°56' W 008°51'0 0.0
2016-Jun-23 04:32N 37°56' W 008°51'0 0.0
2016-Jun-23 03:32N 37°56' W 008°51'0 0.0
2016-Jun-23 02:31N 37°56' W 008°51'0 0.0
2016-Jun-23 01:31N 37°56' W 008°51'0 0.0
2016-Jun-23 00:33N 37°56' W 008°51'0 0.0
2016-Jun-22 23:33N 37°56' W 008°51'0 0.0
2016-Jun-22 22:33N 37°56' W 008°51'0 0.0
2016-Jun-22 21:29N 37°56' W 008°51'0 0.0
2016-Jun-22 20:32N 37°56' W 008°51'0 0.0
2016-Jun-22 19:31N 37°56' W 008°51'0 0.0
2016-Jun-22 18:31N 37°56' W 008°51'0 0.0
2016-Jun-22 17:33N 37°56' W 008°51'0 0.0
2016-Jun-22 16:33N 37°56' W 008°51'0 0.1
2016-Jun-22 15:33N 37°56' W 008°51'1 1.4
2016-Jun-22 14:33N 37°55' W 008°52'0 0.0
2016-Jun-22 13:33N 37°55' W 008°52'0 0.0
2016-Jun-22 12:34N 37°55' W 008°52'0 0.0
2016-Jun-22 11:33N 37°55' W 008°52'0 0.0
2016-Jun-22 10:33N 37°55' W 008°52'0 0.0
2016-Jun-22 09:33N 37°55' W 008°52'0 0.0
2016-Jun-22 08:34N 37°55' W 008°52'5 4.6
2016-Jun-22 07:33N 37°57' W 008°56'1514.7
2016-Jun-22 06:33N 38°07' W 009°10'1515.0
2016-Jun-22 05:33N 38°15' W 009°26'1515.3
2016-Jun-22 04:33N 38°23' W 009°43'1414.2
2016-Jun-22 03:33N 38°32' W 009°57'1413.9
2016-Jun-22 02:32N 38°45' W 010°05'1515.2
2016-Jun-22 01:32N 38°60' W 010°05'1515.1
2016-Jun-22 00:33N 39°15' W 010°04'1615.4
2016-Jun-21 23:31N 39°30' W 010°04'  
2016-Jun-19 16:33N 53°33' W 003°60'1817.6
2016-Jun-19 15:33N 53°33' W 003°30'1515.4
2016-Jun-19 14:33N 53°29' W 003°05'3 2.7
2016-Jun-19 13:33N 53°27' W 003°01'0 0.2
2016-Jun-19 12:31N 53°28' W 003°01'0 0.0
2016-Jun-19 11:31N 53°28' W 003°01'0 0.0
2016-Jun-19 10:33N 53°28' W 003°01'0 0.0
2016-Jun-19 09:33N 53°28' W 003°01'  

Dump ship's entire track history